Terminal Aerodrome Forecast
Issued by NWS

Current Version | Previous Version | Graphics & Text | Print | Product List | Glossary On
Versions: 1 2 3 4 5 6 7 8 9 10 11 12 13 14 15 16 17 18 19 20 21 22 23 24 25 26 27 28 29 30 31 32 33 34
179
FTUS41 KRNK 201726
TAFLWB
TAF
KLWB 201726Z 2018/2118 24005KT P6SM SCT045
     FM210730 00000KT 1SM BR SCT005
     FM210900 00000KT 1/4SM FG BKN001
     FM211200 00000KT 1SM BR SCT008
     FM211300 23003KT P6SM SCT050=

USA.gov is the U.S. government's official web portal to all federal, state and local government web resources and services.